createdAt,value
2022-12-27T00:01:23.705Z,98140.63
2022-12-27T00:03:52.408Z,98140.13
2022-12-27T00:06:22.389Z,98150.84
2022-12-27T00:08:52.468Z,98155.41
2022-12-27T00:11:22.518Z,98152.06
2022-12-27T00:13:51.606Z,98157.06
2022-12-27T00:16:21.456Z,98161.19
2022-12-27T00:18:52.594Z,98157.13
2022-12-27T00:21:22.100Z,98162.22
2022-12-27T00:23:55.585Z,98164.00
2022-12-27T00:26:25.307Z,98160.22
2022-12-27T00:28:54.153Z,98152.28
2022-12-27T00:31:23.408Z,98149.56
2022-12-27T00:33:52.816Z,98147.66
2022-12-27T00:36:25.444Z,98151.91
2022-12-27T00:38:55.741Z,98157.09
2022-12-27T00:41:27.306Z,98149.19
2022-12-27T00:43:56.385Z,98151.78
2022-12-27T00:46:25.607Z,98152.50
2022-12-27T00:48:56.576Z,98149.69
2022-12-27T00:51:28.995Z,98153.75
2022-12-27T00:53:59.401Z,98155.16
2022-12-27T00:56:29.416Z,98150.06
2022-12-27T00:58:58.716Z,98150.28
2022-12-27T01:01:28.369Z,98154.38
2022-12-27T01:03:58.036Z,98160.09
2022-12-27T01:06:30.395Z,98155.91
2022-12-27T01:09:01.411Z,98165.81
2022-12-27T01:11:30.593Z,98158.56
2022-12-27T01:13:59.939Z,98157.94
2022-12-27T01:16:29.460Z,98158.13
2022-12-27T01:18:58.635Z,98158.50
2022-12-27T01:21:30.183Z,98160.09
2022-12-27T01:24:00.444Z,98156.66
2022-12-27T01:26:29.183Z,98167.97
2022-12-27T01:28:57.849Z,98167.53
2022-12-27T01:31:28.034Z,98171.53
2022-12-27T01:33:57.432Z,98170.75
2022-12-27T01:36:27.257Z,98176.09
2022-12-27T01:38:56.269Z,98179.91
2022-12-27T01:41:41.468Z,98187.94
2022-12-27T01:44:41.158Z,98184.06
2022-12-27T01:47:15.392Z,98187.00
2022-12-27T01:49:46.258Z,98185.63
2022-12-27T01:52:14.961Z,98192.56
2022-12-27T01:54:44.090Z,98197.00
2022-12-27T01:57:14.214Z,98197.84
2022-12-27T01:59:43.225Z,98199.13
2022-12-27T02:02:14.264Z,98201.38
2022-12-27T02:04:43.058Z,98197.72
2022-12-27T02:07:11.772Z,98195.00
2022-12-27T02:09:44.041Z,98197.72
2022-12-27T02:12:14.112Z,98209.31
2022-12-27T02:14:43.886Z,98204.56
2022-12-27T02:17:13.431Z,98205.44
2022-12-27T02:19:48.922Z,98201.44
2022-12-27T02:22:57.438Z,98211.47
2022-12-27T02:25:35.814Z,98214.53
2022-12-27T02:28:12.083Z,98213.13
2022-12-27T02:30:42.158Z,98213.91
2022-12-27T02:33:15.585Z,98218.91
2022-12-27T02:35:45.328Z,98210.72
2022-12-27T02:38:17.202Z,98220.75
2022-12-27T02:41:01.061Z,98220.38
2022-12-27T02:43:43.780Z,98226.34
2022-12-27T02:46:32.940Z,98228.81
2022-12-27T02:49:17.020Z,98216.38
2022-12-27T02:52:10.140Z,98213.84
2022-12-27T02:54:49.375Z,98220.75
2022-12-27T02:57:21.433Z,98217.81
2022-12-27T03:00:13.348Z,98222.91
2022-12-27T03:03:01.086Z,98230.91
2022-12-27T03:05:33.277Z,98230.78
2022-12-27T03:08:03.463Z,98228.06
2022-12-27T03:10:48.120Z,98230.91
2022-12-27T03:13:35.565Z,98228.56
2022-12-27T03:16:11.389Z,98233.38
2022-12-27T03:18:48.321Z,98226.91
2022-12-27T03:21:34.367Z,98232.19
2022-12-27T03:24:17.051Z,98235.06
2022-12-27T03:26:47.141Z,98225.19
2022-12-27T03:29:29.745Z,98232.75
2022-12-27T03:32:13.855Z,98227.81
2022-12-27T03:34:46.343Z,98235.34
2022-12-27T03:37:32.300Z,98233.97
2022-12-27T03:40:05.735Z,98239.63
2022-12-27T03:42:50.968Z,98249.50
2022-12-27T03:45:20.332Z,98246.16
2022-12-27T03:47:49.433Z,98249.72
2022-12-27T03:50:22.493Z,98254.78
2022-12-27T03:52:52.898Z,98254.28
2022-12-27T03:55:22.288Z,98258.38
2022-12-27T03:57:51.070Z,98255.00
2022-12-27T04:00:19.959Z,98256.75
2022-12-27T04:02:49.559Z,98251.09
2022-12-27T04:05:20.425Z,98260.47
2022-12-27T04:08:03.112Z,98255.78
2022-12-27T04:10:45.770Z,98252.94
2022-12-27T04:13:28.150Z,98256.44
2022-12-27T04:16:10.835Z,98258.97
2022-12-27T04:18:53.577Z,98253.06
2022-12-27T04:21:38.640Z,98247.94
2022-12-27T04:24:21.488Z,98256.41
2022-12-27T04:27:04.204Z,98246.03
2022-12-27T04:29:46.670Z,98251.56
2022-12-27T04:32:29.295Z,98251.75
2022-12-27T04:34:58.027Z,98259.72
2022-12-27T04:37:28.603Z,98273.38
2022-12-27T04:40:13.340Z,98256.59
2022-12-27T04:42:55.718Z,98270.31
2022-12-27T04:45:38.418Z,98270.50
2022-12-27T04:48:21.044Z,98276.09
2022-12-27T04:51:03.810Z,98265.16
2022-12-27T04:53:47.570Z,98268.78
2022-12-27T04:56:16.267Z,98267.06
2022-12-27T04:59:05.449Z,98259.72
2022-12-27T05:01:47.920Z,98264.16
2022-12-27T05:04:17.034Z,98266.06
2022-12-27T05:06:45.819Z,98264.28
2022-12-27T05:09:29.573Z,98274.56
2022-12-27T05:12:11.940Z,98269.34
2022-12-27T05:14:40.733Z,98277.22
2022-12-27T05:17:09.734Z,98285.16
2022-12-27T05:19:38.452Z,98279.47
2022-12-27T05:22:20.791Z,98270.81
2022-12-27T05:25:04.865Z,98288.50
2022-12-27T05:27:33.582Z,98290.63
2022-12-27T05:30:02.305Z,98295.78
2022-12-27T05:32:31.287Z,98300.16
2022-12-27T05:34:59.918Z,98305.81
2022-12-27T05:37:28.630Z,98299.22
2022-12-27T05:39:58.829Z,98304.75
2022-12-27T05:42:27.838Z,98308.19
2022-12-27T05:44:56.518Z,98302.91
2022-12-27T05:47:25.225Z,98311.91
2022-12-27T05:49:54.201Z,98313.38
2022-12-27T05:52:22.888Z,98321.81
2022-12-27T05:54:51.991Z,98322.41
2022-12-27T05:57:22.153Z,98316.22
2022-12-27T05:59:51.255Z,98321.00
2022-12-27T06:02:20.174Z,98319.09
2022-12-27T06:04:49.206Z,98329.97
2022-12-27T06:07:18.277Z,98323.59
2022-12-27T06:09:47.036Z,98313.78
2022-12-27T06:12:15.743Z,98314.72
2022-12-27T06:14:45.863Z,98322.22
2022-12-27T06:17:14.833Z,98319.56
2022-12-27T06:19:43.569Z,98318.09
2022-12-27T06:22:12.273Z,98315.56
2022-12-27T06:24:40.995Z,98318.22
2022-12-27T06:27:09.710Z,98323.94
2022-12-27T06:29:38.433Z,98322.81
2022-12-27T06:32:08.833Z,98333.75
2022-12-27T06:34:37.556Z,98329.91
2022-12-27T06:37:06.265Z,98333.69
2022-12-27T06:39:36.246Z,98332.59
2022-12-27T06:42:05.135Z,98338.28
2022-12-27T06:44:33.834Z,98348.97
2022-12-27T06:47:02.988Z,98340.81
2022-12-27T06:49:33.208Z,98341.25
2022-12-27T06:52:01.921Z,98353.28
2022-12-27T06:54:32.411Z,98348.97
2022-12-27T06:57:01.145Z,98346.22
2022-12-27T06:59:30.370Z,98343.94
2022-12-27T07:01:59.599Z,98354.47
2022-12-27T07:04:28.599Z,98352.34
2022-12-27T07:06:58.702Z,98353.13
2022-12-27T07:09:27.405Z,98353.22
2022-12-27T07:11:56.104Z,98355.34
2022-12-27T07:14:25.148Z,98355.94
2022-12-27T07:16:53.888Z,98368.03
2022-12-27T07:19:22.615Z,98369.94
2022-12-27T07:21:51.700Z,98375.38
2022-12-27T07:24:21.776Z,98379.44
2022-12-27T07:26:50.629Z,98376.97
2022-12-27T07:29:20.386Z,98373.59
2022-12-27T07:31:49.150Z,98378.19
2022-12-27T07:34:18.405Z,98377.72
2022-12-27T07:36:47.202Z,98382.88
2022-12-27T07:39:15.921Z,98395.28
2022-12-27T07:41:45.984Z,98389.13
2022-12-27T07:44:17.328Z,98391.81
2022-12-27T07:46:46.052Z,98388.25
2022-12-27T07:49:17.889Z,98394.69
2022-12-27T07:51:47.043Z,98388.66
2022-12-27T07:54:15.733Z,98399.06
2022-12-27T07:56:46.029Z,98399.75
2022-12-27T07:59:17.376Z,98405.09
2022-12-27T08:02:02.026Z,98405.31
2022-12-27T08:04:31.218Z,98411.41
2022-12-27T08:07:03.413Z,98415.66
2022-12-27T08:09:33.308Z,98416.66
2022-12-27T08:12:03.731Z,98412.53
2022-12-27T08:14:32.437Z,98405.13
2022-12-27T08:17:04.479Z,98406.91
2022-12-27T08:19:33.242Z,98418.41
2022-12-27T08:22:02.389Z,98412.63
2022-12-27T08:24:54.195Z,98415.59
2022-12-27T08:27:34.270Z,98426.34
2022-12-27T08:30:03.587Z,98428.44
2022-12-27T08:32:32.690Z,98431.41
2022-12-27T08:35:25.188Z,98424.53
2022-12-27T08:37:50.931Z,98416.41
2022-12-27T08:40:19.984Z,98412.88
2022-12-27T08:43:08.165Z,98420.91
2022-12-27T08:45:37.132Z,98410.84
2022-12-27T08:48:06.539Z,98415.28
2022-12-27T08:50:35.267Z,98415.47
2022-12-27T08:53:05.206Z,98426.25
2022-12-27T08:55:34.047Z,98429.69
2022-12-27T08:58:09.224Z,98429.50
2022-12-27T09:00:49.181Z,98430.16
2022-12-27T09:03:23.602Z,98434.59
2022-12-27T09:05:54.587Z,98437.38
2022-12-27T09:08:24.307Z,98437.28
2022-12-27T09:10:53.154Z,98437.78
2022-12-27T09:13:23.328Z,98448.03
2022-12-27T09:15:56.543Z,98447.81
2022-12-27T09:18:32.919Z,98448.63
2022-12-27T09:21:05.867Z,98448.34
2022-12-27T09:23:34.942Z,98442.44
2022-12-27T09:26:07.245Z,98445.56
2022-12-27T09:28:37.441Z,98447.97
2022-12-27T09:31:06.215Z,98442.53
2022-12-27T09:33:35.261Z,98455.16
2022-12-27T09:36:05.138Z,98451.44
2022-12-27T09:38:33.893Z,98456.03
2022-12-27T09:41:05.685Z,98452.97
2022-12-27T09:43:40.550Z,98451.75
2022-12-27T09:46:15.159Z,98451.50
2022-12-27T09:48:45.948Z,98455.19
2022-12-27T09:51:17.279Z,98456.34
2022-12-27T09:53:47.674Z,98456.28
2022-12-27T09:56:20.142Z,98456.59
2022-12-27T09:58:52.435Z,98460.94
2022-12-27T10:01:23.461Z,98444.25
2022-12-27T10:03:52.304Z,98456.88
2022-12-27T10:06:30.739Z,98456.06
2022-12-27T10:09:01.853Z,98457.75
2022-12-27T10:11:38.993Z,98454.16
2022-12-27T10:14:16.390Z,98452.06
2022-12-27T10:16:48.874Z,98445.19
2022-12-27T10:19:26.900Z,98453.56
2022-12-27T10:22:02.228Z,98448.31
2022-12-27T10:24:36.944Z,98453.16
2022-12-27T10:27:13.029Z,98449.91
2022-12-27T10:29:43.324Z,98439.06
2022-12-27T10:32:14.209Z,98440.78
2022-12-27T10:34:42.947Z,98443.72
2022-12-27T10:37:15.451Z,98433.88
2022-12-27T10:39:44.718Z,98445.19
2022-12-27T10:42:21.960Z,98446.63
2022-12-27T10:44:52.335Z,98439.78
2022-12-27T10:47:21.013Z,98435.00
2022-12-27T10:50:04.017Z,98436.13
2022-12-27T10:52:33.549Z,98440.50
2022-12-27T10:55:02.291Z,98434.50
2022-12-27T10:57:33.640Z,98433.25
2022-12-27T11:00:17.891Z,98428.38
2022-12-27T11:02:52.286Z,98432.41
2022-12-27T11:05:24.370Z,98433.03
2022-12-27T11:07:53.086Z,98429.19
2022-12-27T11:10:22.562Z,98430.13
2022-12-27T11:12:58.228Z,98431.41
2022-12-27T11:15:31.908Z,98429.34
2022-12-27T11:18:01.149Z,98430.25
2022-12-27T11:20:30.806Z,98434.66
2022-12-27T11:23:00.796Z,98438.63
2022-12-27T11:25:32.830Z,98438.63
2022-12-27T11:28:06.176Z,98439.47
2022-12-27T11:30:39.030Z,98440.88
2022-12-27T11:33:08.973Z,98441.56
2022-12-27T11:35:46.233Z,98445.16
2022-12-27T11:38:20.002Z,98440.78
2022-12-27T11:40:49.121Z,98446.63
2022-12-27T11:43:19.631Z,98448.75
2022-12-27T11:45:50.635Z,98440.28
2022-12-27T11:48:24.866Z,98444.16
2022-12-27T11:51:02.365Z,98446.97
2022-12-27T11:53:52.412Z,98439.84
2022-12-27T11:56:26.428Z,98438.81
2022-12-27T11:59:21.237Z,98432.72
2022-12-27T12:02:07.574Z,98431.25
2022-12-27T12:04:52.899Z,98430.25
2022-12-27T12:07:27.845Z,98426.53
2022-12-27T12:10:03.961Z,98419.31
2022-12-27T12:12:52.649Z,98424.63
2022-12-27T12:15:31.755Z,98421.72
2022-12-27T12:18:09.004Z,98426.59
2022-12-27T12:20:51.008Z,98419.38
2022-12-27T12:23:24.239Z,98412.25
2022-12-27T12:26:10.425Z,98408.38
2022-12-27T12:28:59.547Z,98406.53
2022-12-27T12:31:40.831Z,98398.13
2022-12-27T12:34:20.644Z,98399.59
2022-12-27T12:36:55.898Z,98397.66
2022-12-27T12:39:29.790Z,98400.28
2022-12-27T12:42:04.746Z,98391.03
2022-12-27T12:44:51.754Z,98387.09
2022-12-27T12:47:46.529Z,98386.06
2022-12-27T12:50:25.543Z,98391.97
2022-12-27T12:53:02.643Z,98391.72
2022-12-27T12:55:39.056Z,98378.16
2022-12-27T12:58:15.779Z,98386.00
2022-12-27T13:00:52.326Z,98379.53
2022-12-27T13:03:42.028Z,98381.44
2022-12-27T13:06:20.318Z,98378.00
2022-12-27T13:08:53.383Z,98379.88
2022-12-27T13:11:33.200Z,98377.50
2022-12-27T13:14:20.862Z,98376.28
2022-12-27T13:16:54.390Z,98371.28
2022-12-27T13:19:44.531Z,98375.63
2022-12-27T13:22:18.335Z,98363.50
2022-12-27T13:25:06.425Z,98356.09
2022-12-27T13:27:37.166Z,98360.56
2022-12-27T13:30:14.200Z,98357.19
2022-12-27T13:32:50.648Z,98354.44
2022-12-27T13:35:28.774Z,98354.28
2022-12-27T13:38:07.661Z,98351.94
2022-12-27T13:40:51.050Z,98352.59
2022-12-27T13:43:30.830Z,98340.03
2022-12-27T13:46:15.798Z,98336.44
2022-12-27T13:48:57.002Z,98334.16
2022-12-27T13:51:45.501Z,98330.31
2022-12-27T13:54:38.847Z,98335.00
2022-12-27T13:57:14.435Z,98345.75
2022-12-27T13:59:52.820Z,98339.66
2022-12-27T14:02:45.909Z,98344.06
2022-12-27T14:05:46.469Z,98340.75
2022-12-27T14:08:19.457Z,98343.09
2022-12-27T14:10:55.216Z,98328.34
2022-12-27T14:13:33.322Z,98320.13
2022-12-27T14:16:17.893Z,98328.88
2022-12-27T14:18:56.454Z,98335.03
2022-12-27T14:21:40.716Z,98329.44
2022-12-27T14:24:17.183Z,98336.34
2022-12-27T14:26:59.420Z,98339.28
2022-12-27T14:29:40.001Z,98344.00
2022-12-27T14:32:28.461Z,98343.75
2022-12-27T14:35:10.834Z,98345.50
2022-12-27T14:37:52.745Z,98346.81
2022-12-27T14:40:37.126Z,98344.84
2022-12-27T14:46:17.568Z,98326.63
2022-12-27T14:49:08.607Z,98332.28
2022-12-27T14:52:01.600Z,98320.94
2022-12-27T14:54:55.778Z,98306.50
2022-12-27T14:57:34.112Z,98309.22
2022-12-27T15:00:08.057Z,98304.78
2022-12-27T15:02:47.693Z,98309.72
2022-12-27T15:05:25.237Z,98307.25
2022-12-27T15:08:15.468Z,98314.53
2022-12-27T15:10:51.693Z,98311.88
2022-12-27T15:13:40.767Z,98308.41
2022-12-27T15:16:15.660Z,98299.59
2022-12-27T15:18:54.292Z,98298.34
2022-12-27T15:21:33.653Z,98294.06
2022-12-27T15:24:07.409Z,98285.84
2022-12-27T15:26:38.083Z,98282.22
2022-12-27T15:29:17.067Z,98282.63
2022-12-27T15:31:53.043Z,98278.09
2022-12-27T15:34:33.025Z,98275.09
2022-12-27T15:37:01.980Z,98283.59
2022-12-27T15:39:49.495Z,98275.78
2022-12-27T15:42:38.802Z,98270.72
2022-12-27T15:45:18.539Z,98263.72
2022-12-27T15:47:58.454Z,98264.72
2022-12-27T15:50:37.681Z,98260.94
2022-12-27T15:53:21.955Z,98259.22
2022-12-27T15:56:03.907Z,98258.28
2022-12-27T15:58:33.597Z,98261.81
2022-12-27T16:01:26.246Z,98253.66
2022-12-27T16:03:57.113Z,98259.22
2022-12-27T16:06:51.894Z,98253.47
2022-12-27T16:09:27.444Z,98253.69
2022-12-27T16:12:03.170Z,98260.19
2022-12-27T16:14:36.430Z,98263.34
2022-12-27T16:17:15.038Z,98251.16
2022-12-27T16:19:55.546Z,98250.31
2022-12-27T16:22:34.364Z,98249.22
2022-12-27T16:25:28.506Z,98248.44
2022-12-27T16:28:05.440Z,98241.50
2022-12-27T16:30:38.042Z,98253.16
2022-12-27T16:33:07.335Z,98253.69
2022-12-27T16:35:39.332Z,98262.94
2022-12-27T16:38:28.961Z,98249.75
2022-12-27T16:40:59.981Z,98249.47
2022-12-27T16:43:42.659Z,98246.75
2022-12-27T16:46:25.849Z,98243.97
2022-12-27T16:49:15.364Z,98245.88
2022-12-27T16:51:55.797Z,98243.47
2022-12-27T16:54:48.916Z,98247.06
2022-12-27T16:57:39.588Z,98248.34
2022-12-27T17:00:28.516Z,98243.13
2022-12-27T17:03:03.246Z,98241.31
2022-12-27T17:05:53.012Z,98254.31
2022-12-27T17:08:40.428Z,98256.88
2022-12-27T17:11:27.666Z,98258.03
2022-12-27T17:14:04.333Z,98247.81
2022-12-27T17:19:29.168Z,98256.72
2022-12-27T17:22:01.229Z,98254.41
2022-12-27T17:24:33.351Z,98251.91
2022-12-27T17:27:13.836Z,98248.94
2022-12-27T17:29:59.223Z,98251.84
2022-12-27T17:32:36.206Z,98243.84
2022-12-27T17:35:10.991Z,98247.06
2022-12-27T17:37:42.229Z,98244.22
2022-12-27T17:40:18.765Z,98242.09
2022-12-27T17:43:09.285Z,98251.25
2022-12-27T17:45:50.040Z,98248.91
2022-12-27T17:48:25.586Z,98256.25
2022-12-27T17:50:56.814Z,98253.91
2022-12-27T17:53:41.503Z,98254.75
2022-12-27T17:56:33.027Z,98253.03
2022-12-27T17:59:17.278Z,98253.38
2022-12-27T18:01:56.691Z,98258.69
2022-12-27T18:04:29.324Z,98248.84
2022-12-27T18:07:00.591Z,98255.03
2022-12-27T18:09:45.593Z,98257.81
2022-12-27T18:12:18.579Z,98263.91
2022-12-27T18:14:53.746Z,98252.91
2022-12-27T18:17:29.292Z,98253.75
2022-12-27T18:19:59.442Z,98255.22
2022-12-27T18:22:31.293Z,98252.44
2022-12-27T18:25:01.929Z,98233.22
2022-12-27T18:27:35.718Z,98247.72
2022-12-27T18:30:17.132Z,98229.69
2022-12-27T18:32:47.551Z,98221.38
2022-12-27T18:35:24.021Z,98224.50
2022-12-27T18:38:13.589Z,98228.34
2022-12-27T18:40:45.120Z,98217.50
2022-12-27T18:49:07.213Z,98197.91
2022-12-27T18:51:45.635Z,98207.50
2022-12-27T18:54:37.124Z,98208.97
2022-12-27T18:57:09.240Z,98192.31
2022-12-27T18:59:40.485Z,98190.09
2022-12-27T19:02:50.490Z,98206.00
2022-12-27T19:05:34.321Z,98198.25
2022-12-27T19:08:14.259Z,98194.94
2022-12-27T19:10:51.291Z,98209.38
2022-12-27T19:13:31.822Z,98207.13
2022-12-27T19:16:16.643Z,98209.78
2022-12-27T19:18:54.416Z,98194.19
2022-12-27T19:21:37.851Z,98192.41
2022-12-27T19:24:23.045Z,98195.25
2022-12-27T19:26:54.769Z,98199.56
2022-12-27T19:29:24.961Z,98197.28
2022-12-27T19:32:01.723Z,98189.72
2022-12-27T19:34:33.752Z,98185.09
2022-12-27T19:37:02.765Z,98178.09
2022-12-27T19:39:36.206Z,98169.44
2022-12-27T19:42:06.838Z,98165.28
2022-12-27T19:44:36.705Z,98166.94
2022-12-27T19:47:20.382Z,98160.84
2022-12-27T19:49:52.227Z,98164.44
2022-12-27T19:52:22.383Z,98164.44
2022-12-27T19:54:54.746Z,98150.91
2022-12-27T19:57:29.259Z,98146.97
2022-12-27T19:59:59.025Z,98150.56
2022-12-27T20:02:38.644Z,98159.91
2022-12-27T20:05:13.490Z,98161.00
2022-12-27T20:07:47.426Z,98156.78
2022-12-27T20:10:17.665Z,98153.50
2022-12-27T20:12:48.364Z,98147.78
2022-12-27T20:15:19.083Z,98139.91
2022-12-27T20:17:48.291Z,98138.19
2022-12-27T20:20:19.207Z,98147.41
2022-12-27T20:22:52.120Z,98138.31
2022-12-27T20:25:23.278Z,98135.94
2022-12-27T20:27:52.894Z,98131.56
2022-12-27T20:30:21.883Z,98136.16
2022-12-27T20:32:51.398Z,98129.16
2022-12-27T20:35:21.892Z,98127.44
2022-12-27T20:37:51.873Z,98128.13
2022-12-27T20:40:22.801Z,98119.63
2022-12-27T20:42:52.343Z,98123.16
2022-12-27T20:45:21.762Z,98118.16
2022-12-27T20:47:51.078Z,98118.00
2022-12-27T20:50:27.945Z,98114.41
2022-12-27T20:52:57.759Z,98117.84
2022-12-27T20:55:27.463Z,98105.53
2022-12-27T20:57:57.142Z,98104.06
2022-12-27T21:00:26.882Z,98100.97
2022-12-27T21:02:57.283Z,98100.31
2022-12-27T21:05:31.546Z,98105.41
2022-12-27T21:08:01.452Z,98091.81
2022-12-27T21:10:32.169Z,98101.63
2022-12-27T21:13:04.607Z,98100.06
2022-12-27T21:15:42.104Z,98087.59
2022-12-27T21:18:15.053Z,98081.66
2022-12-27T21:20:45.888Z,98078.03
2022-12-27T21:23:15.361Z,98080.50
2022-12-27T21:25:45.964Z,98073.78
2022-12-27T21:28:14.821Z,98070.53
2022-12-27T21:30:45.242Z,98073.88
2022-12-27T21:33:14.669Z,98076.56
2022-12-27T21:35:58.810Z,98067.03
2022-12-27T21:38:28.609Z,98064.81
2022-12-27T21:40:59.800Z,98063.66
2022-12-27T21:43:29.443Z,98063.50
2022-12-27T21:46:01.972Z,98062.78
2022-12-27T21:48:31.791Z,98064.50
2022-12-27T21:51:07.726Z,98070.59
2022-12-27T21:53:38.599Z,98062.50
2022-12-27T21:56:07.968Z,98061.34
2022-12-27T21:58:41.357Z,98057.06
2022-12-27T22:01:15.201Z,98048.19
2022-12-27T22:03:44.998Z,98031.22
2022-12-27T22:06:18.339Z,98023.03
2022-12-27T22:08:47.709Z,98023.69
2022-12-27T22:11:16.793Z,98016.09
2022-12-27T22:13:46.101Z,98013.19
2022-12-27T22:16:15.996Z,98008.50
2022-12-27T22:18:45.418Z,98004.38
2022-12-27T22:21:16.630Z,97998.75
2022-12-27T22:23:47.064Z,97993.25
2022-12-27T22:26:16.983Z,97996.03
2022-12-27T22:28:46.097Z,97994.16
2022-12-27T22:31:17.305Z,97989.63
2022-12-27T22:33:46.148Z,97987.97
2022-12-27T22:36:35.066Z,97988.97
2022-12-27T22:39:10.208Z,97989.03
2022-12-27T22:41:40.022Z,97992.59
2022-12-27T22:44:09.588Z,97981.34
2022-12-27T22:47:06.846Z,97975.88
2022-12-27T22:49:30.476Z,97969.41
2022-12-27T22:52:00.974Z,97965.44
2022-12-27T22:55:04.478Z,97965.53
2022-12-27T22:57:21.336Z,97953.91
2022-12-27T22:59:50.695Z,97947.97
2022-12-27T23:02:19.523Z,97942.69
2022-12-27T23:04:48.970Z,97942.47
2022-12-27T23:07:20.384Z,97938.09
2022-12-27T23:09:49.785Z,97935.75
2022-12-27T23:12:18.667Z,97932.41
2022-12-27T23:14:48.255Z,97919.09
2022-12-27T23:17:18.387Z,97922.53
2022-12-27T23:19:47.741Z,97921.56
2022-12-27T23:22:17.267Z,97914.41
2022-12-27T23:24:47.351Z,97904.06
2022-12-27T23:27:16.703Z,97899.69
2022-12-27T23:29:45.440Z,97896.97
2022-12-27T23:32:14.196Z,97884.31
2022-12-27T23:34:46.077Z,97881.69
2022-12-27T23:37:14.818Z,97872.78
2022-12-27T23:39:45.885Z,97864.91
2022-12-27T23:42:16.334Z,97861.72
2022-12-27T23:44:45.380Z,97855.03
2022-12-27T23:47:15.374Z,97847.69
2022-12-27T23:49:44.065Z,97839.31
2022-12-27T23:52:13.071Z,97839.16
2022-12-27T23:54:42.073Z,97829.91
2022-12-27T23:57:20.495Z,97829.56
2022-12-27T23:59:54.852Z,97811.22
